sensor_id;sensor_type;location;lat;lon;timestamp;pressure;altitude;pressure_sealevel;temperature;humidity
32638;BME280;19045;52.268;10.506;2023-02-01T00:00:14;100490.69;;;4.48;89.51
32638;BME280;19045;52.268;10.506;2023-02-01T00:02:40;100494.31;;;4.60;89.18
32638;BME280;19045;52.268;10.506;2023-02-01T00:05:07;100494.94;;;4.55;89.66
32638;BME280;19045;52.268;10.506;2023-02-01T00:07:35;100480.78;;;4.61;88.89
32638;BME280;19045;52.268;10.506;2023-02-01T00:10:02;100494.69;;;4.63;88.68
32638;BME280;19045;52.268;10.506;2023-02-01T00:12:31;100490.00;;;4.59;88.57
32638;BME280;19045;52.268;10.506;2023-02-01T00:14:58;100486.38;;;4.53;89.03
32638;BME280;19045;52.268;10.506;2023-02-01T00:17:24;100485.31;;;4.54;88.89
32638;BME280;19045;52.268;10.506;2023-02-01T00:19:51;100484.91;;;4.57;88.92
32638;BME280;19045;52.268;10.506;2023-02-01T00:22:18;100478.66;;;4.45;89.57
32638;BME280;19045;52.268;10.506;2023-02-01T00:24:44;100486.16;;;4.55;89.27
32638;BME280;19045;52.268;10.506;2023-02-01T00:27:11;100487.41;;;4.52;89.30
32638;BME280;19045;52.268;10.506;2023-02-01T00:29:44;100480.44;;;4.51;89.38
32638;BME280;19045;52.268;10.506;2023-02-01T00:32:11;100481.94;;;4.47;89.87
32638;BME280;19045;52.268;10.506;2023-02-01T00:34:37;100481.94;;;4.47;89.90
32638;BME280;19045;52.268;10.506;2023-02-01T00:37:04;100478.84;;;4.50;89.67
32638;BME280;19045;52.268;10.506;2023-02-01T00:39:30;100473.28;;;4.52;89.75
32638;BME280;19045;52.268;10.506;2023-02-01T00:41:57;100473.22;;;4.58;89.44
32638;BME280;19045;52.268;10.506;2023-02-01T00:44:24;100467.97;;;4.52;89.81
32638;BME280;19045;52.268;10.506;2023-02-01T00:46:51;100471.63;;;4.51;90.31
32638;BME280;19045;52.268;10.506;2023-02-01T00:49:18;100465.75;;;4.49;90.49
32638;BME280;19045;52.268;10.506;2023-02-01T00:51:45;100465.59;;;4.44;90.76
32638;BME280;19045;52.268;10.506;2023-02-01T00:54:11;100469.91;;;4.38;91.01
32638;BME280;19045;52.268;10.506;2023-02-01T00:56:38;100462.69;;;4.45;90.96
32638;BME280;19045;52.268;10.506;2023-02-01T00:59:05;100476.84;;;4.39;91.14
32638;BME280;19045;52.268;10.506;2023-02-01T01:01:32;100459.69;;;4.35;91.69
32638;BME280;19045;52.268;10.506;2023-02-01T01:03:59;100463.38;;;4.34;91.97
32638;BME280;19045;52.268;10.506;2023-02-01T01:06:28;100455.03;;;4.31;92.30
32638;BME280;19045;52.268;10.506;2023-02-01T01:08:56;100458.09;;;4.28;92.37
32638;BME280;19045;52.268;10.506;2023-02-01T01:11:24;100463.66;;;4.26;92.59
32638;BME280;19045;52.268;10.506;2023-02-01T01:13:53;100461.44;;;4.23;92.86
32638;BME280;19045;52.268;10.506;2023-02-01T01:16:21;100449.16;;;4.22;93.36
32638;BME280;19045;52.268;10.506;2023-02-01T01:18:48;100445.91;;;4.20;93.86
32638;BME280;19045;52.268;10.506;2023-02-01T01:21:16;100450.41;;;4.20;94.08
32638;BME280;19045;52.268;10.506;2023-02-01T01:23:44;100440.34;;;4.22;93.85
32638;BME280;19045;52.268;10.506;2023-02-01T01:26:14;100438.53;;;4.22;93.50
32638;BME280;19045;52.268;10.506;2023-02-01T01:28:41;100452.84;;;4.21;93.45
32638;BME280;19045;52.268;10.506;2023-02-01T01:31:08;100458.38;;;4.20;93.85
32638;BME280;19045;52.268;10.506;2023-02-01T01:33:34;100459.41;;;4.18;93.84
32638;BME280;19045;52.268;10.506;2023-02-01T01:36:01;100457.56;;;4.19;93.90
32638;BME280;19045;52.268;10.506;2023-02-01T01:38:29;100459.41;;;4.18;93.79
32638;BME280;19045;52.268;10.506;2023-02-01T01:40:55;100445.91;;;4.20;93.77
32638;BME280;19045;52.268;10.506;2023-02-01T01:43:22;100454.66;;;4.27;93.39
32638;BME280;19045;52.268;10.506;2023-02-01T01:45:49;100447.69;;;4.26;93.89
32638;BME280;19045;52.268;10.506;2023-02-01T01:48:18;100449.50;;;4.32;92.70
32638;BME280;19045;52.268;10.506;2023-02-01T01:50:50;100445.19;;;4.31;92.81
32638;BME280;19045;52.268;10.506;2023-02-01T01:53:20;100448.69;;;4.32;93.10
32638;BME280;19045;52.268;10.506;2023-02-01T01:55:52;100454.81;;;4.32;92.92
32638;BME280;19045;52.268;10.506;2023-02-01T01:58:23;100451.34;;;4.32;93.07
32638;BME280;19045;52.268;10.506;2023-02-01T02:00:52;100444.81;;;4.28;93.25
32638;BME280;19045;52.268;10.506;2023-02-01T02:03:22;100441.41;;;4.21;93.45
32638;BME280;19045;52.268;10.506;2023-02-01T02:05:51;100437.94;;;4.20;93.46
32638;BME280;19045;52.268;10.506;2023-02-01T02:08:20;100450.22;;;4.14;94.17
32638;BME280;19045;52.268;10.506;2023-02-01T02:10:48;100445.13;;;4.13;94.30
32638;BME280;19045;52.268;10.506;2023-02-01T02:13:30;100432.63;;;4.20;93.78
32638;BME280;19045;52.268;10.506;2023-02-01T02:16:05;100435.28;;;4.20;93.72
32638;BME280;19045;52.268;10.506;2023-02-01T02:18:41;100431.56;;;4.21;93.74
32638;BME280;19045;52.268;10.506;2023-02-01T02:21:18;100426.44;;;4.26;93.44
32638;BME280;19045;52.268;10.506;2023-02-01T02:27:11;100420.72;;;4.23;93.72
32638;BME280;19045;52.268;10.506;2023-02-01T02:33:24;100410.78;;;4.11;94.13
32638;BME280;19045;52.268;10.506;2023-02-01T02:36:06;100411.22;;;4.08;94.53
32638;BME280;19045;52.268;10.506;2023-02-01T02:38:44;100404.06;;;4.09;94.60
32638;BME280;19045;52.268;10.506;2023-02-01T02:41:16;100398.59;;;4.04;94.85
32638;BME280;19045;52.268;10.506;2023-02-01T02:44:09;100408.78;;;4.07;94.88
32638;BME280;19045;52.268;10.506;2023-02-01T02:47:00;100397.91;;;4.08;94.93
32638;BME280;19045;52.268;10.506;2023-02-01T02:49:51;100400.56;;;4.08;94.38
32638;BME280;19045;52.268;10.506;2023-02-01T02:52:33;100394.25;;;4.09;94.62
32638;BME280;19045;52.268;10.506;2023-02-01T02:55:23;100386.91;;;4.05;94.52
32638;BME280;19045;52.268;10.506;2023-02-01T02:57:52;100391.78;;;4.08;94.32
32638;BME280;19045;52.268;10.506;2023-02-01T03:00:37;100388.09;;;4.09;94.26
32638;BME280;19045;52.268;10.506;2023-02-01T03:03:23;100391.00;;;4.07;94.42
32638;BME280;19045;52.268;10.506;2023-02-01T03:06:12;100380.38;;;4.07;94.24
32638;BME280;19045;52.268;10.506;2023-02-01T03:08:41;100380.94;;;4.09;94.30
32638;BME280;19045;52.268;10.506;2023-02-01T03:11:12;100385.44;;;4.09;94.58
32638;BME280;19045;52.268;10.506;2023-02-01T03:13:43;100378.88;;;4.11;94.46
32638;BME280;19045;52.268;10.506;2023-02-01T03:16:13;100372.94;;;4.16;94.08
32638;BME280;19045;52.268;10.506;2023-02-01T03:18:46;100364.00;;;4.10;94.64
32638;BME280;19045;52.268;10.506;2023-02-01T03:21:19;100366.66;;;4.10;94.52
32638;BME280;19045;52.268;10.506;2023-02-01T03:23:48;100363.16;;;4.10;94.75
32638;BME280;19045;52.268;10.506;2023-02-01T03:26:17;100347.59;;;4.13;94.45
32638;BME280;19045;52.268;10.506;2023-02-01T03:28:49;100354.38;;;4.09;94.41
32638;BME280;19045;52.268;10.506;2023-02-01T03:31:18;100351.47;;;4.11;94.64
32638;BME280;19045;52.268;10.506;2023-02-01T03:33:45;100354.75;;;4.13;94.33
32638;BME280;19045;52.268;10.506;2023-02-01T03:36:20;100336.31;;;4.18;94.25
32638;BME280;19045;52.268;10.506;2023-02-01T03:38:52;100334.03;;;4.22;94.26
32638;BME280;19045;52.268;10.506;2023-02-01T03:41:27;100335.84;;;4.21;94.42
32638;BME280;19045;52.268;10.506;2023-02-01T03:43:58;100334.03;;;4.22;94.32
32638;BME280;19045;52.268;10.506;2023-02-01T03:46:37;100332.56;;;4.26;93.83
32638;BME280;19045;52.268;10.506;2023-02-01T03:49:07;100329.69;;;4.27;93.68
32638;BME280;19045;52.268;10.506;2023-02-01T03:51:38;100335.59;;;4.29;93.86
32638;BME280;19045;52.268;10.506;2023-02-01T03:54:09;100324.75;;;4.31;93.51
32638;BME280;19045;52.268;10.506;2023-02-01T03:56:38;100317.00;;;4.29;93.65
32638;BME280;19045;52.268;10.506;2023-02-01T03:59:05;100318.25;;;4.27;94.00
32638;BME280;19045;52.268;10.506;2023-02-01T04:01:32;100321.50;;;4.29;94.04
32638;BME280;19045;52.268;10.506;2023-02-01T04:03:58;100309.59;;;4.31;94.53
32638;BME280;19045;52.268;10.506;2023-02-01T04:06:25;100311.09;;;4.27;94.98
32638;BME280;19045;52.268;10.506;2023-02-01T04:08:53;100313.75;;;4.27;95.53
32638;BME280;19045;52.268;10.506;2023-02-01T04:11:20;100314.19;;;4.24;95.89
32638;BME280;19045;52.268;10.506;2023-02-01T04:13:46;100307.16;;;4.30;96.41
32638;BME280;19045;52.268;10.506;2023-02-01T04:16:13;100301.09;;;4.23;96.78
32638;BME280;19045;52.268;10.506;2023-02-01T04:18:39;100299.84;;;4.25;97.67
32638;BME280;19045;52.268;10.506;2023-02-01T04:21:06;100290.03;;;4.26;97.71
32638;BME280;19045;52.268;10.506;2023-02-01T04:23:33;100293.25;;;4.28;97.89
32638;BME280;19045;52.268;10.506;2023-02-01T04:26:02;100282.69;;;4.21;98.29
32638;BME280;19045;52.268;10.506;2023-02-01T04:28:29;100290.47;;;4.23;98.79
32638;BME280;19045;52.268;10.506;2023-02-01T04:30:55;100289.88;;;4.21;98.90
32638;BME280;19045;52.268;10.506;2023-02-01T04:33:22;100287.59;;;4.24;98.76
32638;BME280;19045;52.268;10.506;2023-02-01T04:35:49;100288.38;;;4.25;98.78
32638;BME280;19045;52.268;10.506;2023-02-01T04:38:15;100275.53;;;4.22;98.94
32638;BME280;19045;52.268;10.506;2023-02-01T04:40:42;100278.19;;;4.22;99.21
32638;BME280;19045;52.268;10.506;2023-02-01T04:43:10;100265.34;;;4.18;99.50
32638;BME280;19045;52.268;10.506;2023-02-01T04:45:36;100271.28;;;4.21;99.60
32638;BME280;19045;52.268;10.506;2023-02-01T04:48:03;100261.88;;;4.18;100.00
32638;BME280;19045;52.268;10.506;2023-02-01T04:50:30;100244.31;;;4.17;99.92
32638;BME280;19045;52.268;10.506;2023-02-01T04:52:57;100259.66;;;4.15;99.61
32638;BME280;19045;52.268;10.506;2023-02-01T04:55:23;100258.63;;;4.16;99.95
32638;BME280;19045;52.268;10.506;2023-02-01T04:57:50;100257.81;;;4.15;99.78
32638;BME280;19045;52.268;10.506;2023-02-01T05:00:18;100257.38;;;4.18;99.54
32638;BME280;19045;52.268;10.506;2023-02-01T05:02:45;100251.59;;;4.22;99.59
32638;BME280;19045;52.268;10.506;2023-02-01T05:05:11;100243.63;;;4.22;99.69
32638;BME280;19045;52.268;10.506;2023-02-01T05:07:38;100252.81;;;4.26;98.93
32638;BME280;19045;52.268;10.506;2023-02-01T05:10:05;100235.59;;;4.28;98.67
32638;BME280;19045;52.268;10.506;2023-02-01T05:12:32;100228.06;;;4.25;98.42
32638;BME280;19045;52.268;10.506;2023-02-01T05:15:17;100228.66;;;4.27;98.47
32638;BME280;19045;52.268;10.506;2023-02-01T05:17:44;100231.91;;;4.29;98.24
32638;BME280;19045;52.268;10.506;2023-02-01T05:20:11;100221.41;;;4.34;98.09
32638;BME280;19045;52.268;10.506;2023-02-01T05:22:37;100215.06;;;4.35;97.44
32638;BME280;19045;52.268;10.506;2023-02-01T05:25:04;100222.38;;;4.40;96.95
32638;BME280;19045;52.268;10.506;2023-02-01T05:27:31;100226.44;;;4.42;97.04
32638;BME280;19045;52.268;10.506;2023-02-01T05:29:58;100228.28;;;4.42;97.57
32638;BME280;19045;52.268;10.506;2023-02-01T05:32:26;100223.66;;;4.37;99.11
32638;BME280;19045;52.268;10.506;2023-02-01T05:34:53;100225.84;;;4.22;100.00
32638;BME280;19045;52.268;10.506;2023-02-01T05:37:19;100236.53;;;4.15;100.00
32638;BME280;19045;52.268;10.506;2023-02-01T05:39:46;100232.38;;;4.01;100.00
32638;BME280;19045;52.268;10.506;2023-02-01T05:42:12;100230.84;;;3.94;100.00
32638;BME280;19045;52.268;10.506;2023-02-01T05:44:39;100224.31;;;3.90;100.00
32638;BME280;19045;52.268;10.506;2023-02-01T05:47:06;100218.06;;;3.84;100.00
32638;BME280;19045;52.268;10.506;2023-02-01T05:49:34;100221.94;;;3.82;100.00
32638;BME280;19045;52.268;10.506;2023-02-01T05:52:00;100218.06;;;3.84;100.00
32638;BME280;19045;52.268;10.506;2023-02-01T05:54:27;100199.66;;;3.83;100.00
32638;BME280;19045;52.268;10.506;2023-02-01T05:56:56;100210.28;;;3.83;100.00
32638;BME280;19045;52.268;10.506;2023-02-01T05:59:22;100220.72;;;3.84;100.00
32638;BME280;19045;52.268;10.506;2023-02-01T06:01:49;100222.94;;;3.87;100.00
32638;BME280;19045;52.268;10.506;2023-02-01T06:04:15;100228.69;;;3.84;100.00
32638;BME280;19045;52.268;10.506;2023-02-01T06:06:43;100222.56;;;3.84;100.00
32638;BME280;19045;52.268;10.506;2023-02-01T06:09:10;100189.84;;;3.83;100.00
32638;BME280;19045;52.268;10.506;2023-02-01T06:11:37;100205.84;;;3.77;100.00
32638;BME280;19045;52.268;10.506;2023-02-01T06:14:03;100197.88;;;3.77;100.00
32638;BME280;19045;52.268;10.506;2023-02-01T06:16:31;100195.44;;;3.75;100.00
32638;BME280;19045;52.268;10.506;2023-02-01T06:18:58;100192.56;;;3.77;100.00
32638;BME280;19045;52.268;10.506;2023-02-01T06:21:24;100193.38;;;3.77;100.00
32638;BME280;19045;52.268;10.506;2023-02-01T06:23:53;100195.00;;;3.78;100.00
32638;BME280;19045;52.268;10.506;2023-02-01T06:26:20;100188.81;;;3.84;100.00
32638;BME280;19045;52.268;10.506;2023-02-01T06:28:47;100183.28;;;3.86;100.00
32638;BME280;19045;52.268;10.506;2023-02-01T06:31:14;100181.66;;;3.85;100.00
32638;BME280;19045;52.268;10.506;2023-02-01T06:33:40;100192.22;;;3.91;100.00
32638;BME280;19045;52.268;10.506;2023-02-01T06:36:09;100187.50;;;3.93;100.00
32638;BME280;19045;52.268;10.506;2023-02-01T06:38:37;100183.00;;;3.94;100.00
32638;BME280;19045;52.268;10.506;2023-02-01T06:41:06;100174.81;;;3.95;100.00
32638;BME280;19045;52.268;10.506;2023-02-01T06:43:33;100173.72;;;4.03;100.00
32638;BME280;19045;52.268;10.506;2023-02-01T06:46:00;100170.03;;;4.04;100.00
32638;BME280;19045;52.268;10.506;2023-02-01T06:48:27;100169.78;;;4.05;100.00
32638;BME280;19045;52.268;10.506;2023-02-01T06:50:54;100178.94;;;4.09;100.00
32638;BME280;19045;52.268;10.506;2023-02-01T06:53:20;100165.66;;;4.09;100.00
32638;BME280;19045;52.268;10.506;2023-02-01T06:55:53;100170.53;;;4.12;100.00
32638;BME280;19045;52.268;10.506;2023-02-01T06:58:22;100165.59;;;4.16;100.00
32638;BME280;19045;52.268;10.506;2023-02-01T07:00:49;100164.63;;;4.10;100.00
32638;BME280;19045;52.268;10.506;2023-02-01T07:03:15;100166.69;;;4.08;100.00
32638;BME280;19045;52.268;10.506;2023-02-01T07:05:42;100165.75;;;4.03;100.00
32638;BME280;19045;52.268;10.506;2023-02-01T07:08:09;100167.38;;;4.04;100.00
32638;BME280;19045;52.268;10.506;2023-02-01T07:10:35;100175.34;;;4.04;100.00
32638;BME280;19045;52.268;10.506;2023-02-01T07:13:02;100180.22;;;4.07;100.00
32638;BME280;19045;52.268;10.506;2023-02-01T07:15:30;100184.72;;;4.06;100.00
32638;BME280;19045;52.268;10.506;2023-02-01T07:17:56;100183.91;;;4.06;100.00
32638;BME280;19045;52.268;10.506;2023-02-01T07:20:23;100178.78;;;4.04;100.00
32638;BME280;19045;52.268;10.506;2023-02-01T07:22:54;100184.47;;;4.08;100.00
32638;BME280;19045;52.268;10.506;2023-02-01T07:25:21;100194.38;;;4.01;100.00
32638;BME280;19045;52.268;10.506;2023-02-01T07:27:48;100181.88;;;4.01;100.00
32638;BME280;19045;52.268;10.506;2023-02-01T07:30:14;100205.22;;;3.99;100.00
32638;BME280;19045;52.268;10.506;2023-02-01T07:32:42;100207.88;;;3.99;100.00
32638;BME280;19045;52.268;10.506;2023-02-01T07:35:09;100207.38;;;4.09;100.00
32638;BME280;19045;52.268;10.506;2023-02-01T07:37:35;100209.22;;;4.08;100.00
32638;BME280;19045;52.268;10.506;2023-02-01T07:40:03;100212.09;;;4.07;100.00
32638;BME280;19045;52.268;10.506;2023-02-01T07:42:29;100210.03;;;4.09;100.00
32638;BME280;19045;52.268;10.506;2023-02-01T07:44:56;100217.34;;;4.13;100.00
32638;BME280;19045;52.268;10.506;2023-02-01T07:47:22;100209.38;;;4.13;100.00
32638;BME280;19045;52.268;10.506;2023-02-01T07:49:50;100225.72;;;4.17;100.00
32638;BME280;19045;52.268;10.506;2023-02-01T07:52:17;100223.41;;;4.21;100.00
32638;BME280;19045;52.268;10.506;2023-02-01T07:54:44;100221.94;;;4.25;100.00
32638;BME280;19045;52.268;10.506;2023-02-01T07:57:15;100218.03;;;4.27;100.00
32638;BME280;19045;52.268;10.506;2023-02-01T07:59:42;100220.81;;;4.32;100.00
32638;BME280;19045;52.268;10.506;2023-02-01T08:02:22;100222.38;;;4.40;100.00
32638;BME280;19045;52.268;10.506;2023-02-01T08:04:50;100233.41;;;4.43;100.00
32638;BME280;19045;52.268;10.506;2023-02-01T08:07:17;100239.09;;;4.47;100.00
32638;BME280;19045;52.268;10.506;2023-02-01T08:09:43;100237.97;;;4.54;100.00
32638;BME280;19045;52.268;10.506;2023-02-01T08:12:10;100252.88;;;4.55;100.00
32638;BME280;19045;52.268;10.506;2023-02-01T08:14:37;100243.44;;;4.59;100.00
32638;BME280;19045;52.268;10.506;2023-02-01T08:17:05;100247.00;;;4.53;100.00
32638;BME280;19045;52.268;10.506;2023-02-01T08:19:31;100245.50;;;4.57;100.00
32638;BME280;19045;52.268;10.506;2023-02-01T08:21:59;100239.81;;;4.54;100.00
32638;BME280;19045;52.268;10.506;2023-02-01T08:24:31;100254.81;;;4.48;100.00
32638;BME280;19045;52.268;10.506;2023-02-01T08:26:57;100253.47;;;4.57;100.00
32638;BME280;19045;52.268;10.506;2023-02-01T08:29:24;100256.38;;;4.56;100.00
32638;BME280;19045;52.268;10.506;2023-02-01T08:31:51;100259.59;;;4.58;100.00
32638;BME280;19045;52.268;10.506;2023-02-01T08:34:18;100254.00;;;4.66;100.00
32638;BME280;19045;52.268;10.506;2023-02-01T08:36:45;100248.81;;;4.71;100.00
32638;BME280;19045;52.268;10.506;2023-02-01T08:39:14;100245.03;;;4.79;100.00
32638;BME280;19045;52.268;10.506;2023-02-01T08:41:40;100231.38;;;4.75;100.00
32638;BME280;19045;52.268;10.506;2023-02-01T08:44:27;100210.78;;;4.71;100.00
32638;BME280;19045;52.268;10.506;2023-02-01T08:46:54;100221.84;;;4.67;100.00
32638;BME280;19045;52.268;10.506;2023-02-01T08:49:21;100222.06;;;4.66;100.00
32638;BME280;19045;52.268;10.506;2023-02-01T08:51:47;100246.59;;;4.68;100.00
32638;BME280;19045;52.268;10.506;2023-02-01T08:54:15;100259.38;;;4.78;100.00
32638;BME280;19045;52.268;10.506;2023-02-01T08:56:42;100279.72;;;4.72;100.00
32638;BME280;19045;52.268;10.506;2023-02-01T08:59:08;100266.66;;;4.71;100.00
32638;BME280;19045;52.268;10.506;2023-02-01T09:01:35;100277.56;;;4.62;100.00
32638;BME280;19045;52.268;10.506;2023-02-01T09:04:01;100275.34;;;4.59;100.00
32638;BME280;19045;52.268;10.506;2023-02-01T09:06:28;100261.25;;;4.59;100.00
32638;BME280;19045;52.268;10.506;2023-02-01T09:08:55;100251.47;;;4.71;100.00
32638;BME280;19045;52.268;10.506;2023-02-01T09:11:23;100265.50;;;4.78;100.00
32638;BME280;19045;52.268;10.506;2023-02-01T09:13:50;100256.59;;;4.73;100.00
32638;BME280;19045;52.268;10.506;2023-02-01T09:16:17;100243.66;;;4.76;100.00
32638;BME280;19045;52.268;10.506;2023-02-01T09:18:44;100244.84;;;4.80;100.00
32638;BME280;19045;52.268;10.506;2023-02-01T09:21:10;100249.09;;;4.81;100.00
32638;BME280;19045;52.268;10.506;2023-02-01T09:23:37;100244.75;;;4.87;100.00
32638;BME280;19045;52.268;10.506;2023-02-01T09:26:05;100247.16;;;4.88;100.00
32638;BME280;19045;52.268;10.506;2023-02-01T09:28:39;100233.50;;;5.14;100.00
32638;BME280;19045;52.268;10.506;2023-02-01T09:31:06;100237.72;;;5.34;100.00
32638;BME280;19045;52.268;10.506;2023-02-01T09:33:35;100235.56;;;5.42;100.00
32638;BME280;19045;52.268;10.506;2023-02-01T09:36:05;100232.34;;;5.52;98.68
32638;BME280;19045;52.268;10.506;2023-02-01T09:38:34;100245.47;;;5.65;96.78
32638;BME280;19045;52.268;10.506;2023-02-01T09:41:01;100242.34;;;5.68;94.49
32638;BME280;19045;52.268;10.506;2023-02-01T09:43:36;100244.69;;;6.46;92.82
32638;BME280;19045;52.268;10.506;2023-02-01T09:46:18;100252.22;;;7.00;87.54
32638;BME280;19045;52.268;10.506;2023-02-01T09:48:48;100223.75;;;7.06;86.65
32638;BME280;19045;52.268;10.506;2023-02-01T09:51:21;100239.88;;;6.83;87.24
32638;BME280;19045;52.268;10.506;2023-02-01T09:54:00;100241.84;;;7.15;85.14
32638;BME280;19045;52.268;10.506;2023-02-01T09:56:35;100242.91;;;7.31;84.89
32638;BME280;19045;52.268;10.506;2023-02-01T09:59:15;100233.84;;;8.15;81.07
32638;BME280;19045;52.268;10.506;2023-02-01T10:01:49;100224.53;;;8.78;75.84
32638;BME280;19045;52.268;10.506;2023-02-01T10:04:17;100232.81;;;8.55;77.07
32638;BME280;19045;52.268;10.506;2023-02-01T10:07:00;100234.00;;;7.25;81.11
32638;BME280;19045;52.268;10.506;2023-02-01T10:09:44;100248.50;;;7.46;80.51
32638;BME280;19045;52.268;10.506;2023-02-01T10:12:49;100250.53;;;7.11;81.81
32638;BME280;19045;52.268;10.506;2023-02-01T10:15:30;100242.41;;;6.78;84.38
32638;BME280;19045;52.268;10.506;2023-02-01T10:18:23;100222.78;;;6.84;84.19
32638;BME280;19045;52.268;10.506;2023-02-01T10:21:02;100240.50;;;6.50;84.41
32638;BME280;19045;52.268;10.506;2023-02-01T10:23:49;100211.44;;;6.13;85.85
32638;BME280;19045;52.268;10.506;2023-02-01T10:26:21;100247.50;;;6.04;88.20
32638;BME280;19045;52.268;10.506;2023-02-01T10:28:50;100249.38;;;6.15;88.61
32638;BME280;19045;52.268;10.506;2023-02-01T10:31:18;100247.97;;;6.24;87.49
32638;BME280;19045;52.268;10.506;2023-02-01T10:34:01;100237.72;;;6.45;87.62
32638;BME280;19045;52.268;10.506;2023-02-01T10:36:41;100246.09;;;6.48;86.01
32638;BME280;19045;52.268;10.506;2023-02-01T10:39:11;100252.84;;;7.19;84.75
32638;BME280;19045;52.268;10.506;2023-02-01T10:41:40;100253.31;;;7.94;79.19
32638;BME280;19045;52.268;10.506;2023-02-01T10:44:19;100243.09;;;8.08;78.05
32638;BME280;19045;52.268;10.506;2023-02-01T10:46:49;100255.78;;;8.51;75.96
32638;BME280;19045;52.268;10.506;2023-02-01T10:49:20;100254.34;;;8.43;75.23
32638;BME280;19045;52.268;10.506;2023-02-01T10:52:13;100255.81;;;8.17;76.65
32638;BME280;19045;52.268;10.506;2023-02-01T10:54:41;100268.06;;;7.80;76.91
32638;BME280;19045;52.268;10.506;2023-02-01T10:57:19;100261.03;;;8.07;77.85
32638;BME280;19045;52.268;10.506;2023-02-01T10:59:51;100259.66;;;7.88;78.04
32638;BME280;19045;52.268;10.506;2023-02-01T11:02:25;100249.75;;;7.55;80.30
32638;BME280;19045;52.268;10.506;2023-02-01T11:05:00;100249.53;;;7.00;82.13
32638;BME280;19045;52.268;10.506;2023-02-01T11:07:27;100251.94;;;6.73;83.57
32638;BME280;19045;52.268;10.506;2023-02-01T11:09:55;100238.50;;;6.57;85.15
32638;BME280;19045;52.268;10.506;2023-02-01T11:12:28;100241.66;;;6.54;85.43
32638;BME280;19045;52.268;10.506;2023-02-01T11:14:59;100244.59;;;6.29;85.74
32638;BME280;19045;52.268;10.506;2023-02-01T11:17:34;100239.50;;;6.28;86.64
32638;BME280;19045;52.268;10.506;2023-02-01T11:20:08;100244.13;;;6.20;86.40
32638;BME280;19045;52.268;10.506;2023-02-01T11:22:45;100240.06;;;6.18;87.07
32638;BME280;19045;52.268;10.506;2023-02-01T11:25:15;100232.19;;;6.11;86.64
32638;BME280;19045;52.268;10.506;2023-02-01T11:27:44;100236.03;;;6.15;87.29
32638;BME280;19045;52.268;10.506;2023-02-01T11:30:19;100235.56;;;6.18;87.60
32638;BME280;19045;52.268;10.506;2023-02-01T11:32:50;100226.75;;;6.18;87.72
32638;BME280;19045;52.268;10.506;2023-02-01T11:35:20;100221.19;;;6.19;87.39
32638;BME280;19045;52.268;10.506;2023-02-01T11:37:52;100212.00;;;6.27;86.95
32638;BME280;19045;52.268;10.506;2023-02-01T11:40:26;100210.16;;;6.28;87.07
32638;BME280;19045;52.268;10.506;2023-02-01T11:42:55;100202.53;;;6.19;87.17
32638;BME280;19045;52.268;10.506;2023-02-01T11:45:27;100206.34;;;6.00;86.85
32638;BME280;19045;52.268;10.506;2023-02-01T11:47:55;100194.97;;;5.93;87.63
32638;BME280;19045;52.268;10.506;2023-02-01T11:50:30;100189.31;;;5.90;87.65
32638;BME280;19045;52.268;10.506;2023-02-01T11:53:13;100178.63;;;6.01;87.38
32638;BME280;19045;52.268;10.506;2023-02-01T11:55:55;100179.22;;;6.03;86.52
32638;BME280;19045;52.268;10.506;2023-02-01T11:58:50;100176.41;;;6.10;86.11
32638;BME280;19045;52.268;10.506;2023-02-01T12:01:47;100168.28;;;6.28;85.60
32638;BME280;19045;52.268;10.506;2023-02-01T12:04:44;100165.63;;;6.16;85.67
32638;BME280;19045;52.268;10.506;2023-02-01T12:07:20;100168.06;;;6.18;84.98
32638;BME280;19045;52.268;10.506;2023-02-01T12:10:01;100149.31;;;6.13;85.26
32638;BME280;19045;52.268;10.506;2023-02-01T12:12:38;100142.94;;;6.02;84.78
32638;BME280;19045;52.268;10.506;2023-02-01T12:15:19;100130.97;;;6.16;84.64
32638;BME280;19045;52.268;10.506;2023-02-01T12:18:14;100132.94;;;7.39;78.70
32638;BME280;19045;52.268;10.506;2023-02-01T12:21:03;100119.28;;;6.74;80.95
32638;BME280;19045;52.268;10.506;2023-02-01T12:23:48;100106.97;;;6.73;81.50
32638;BME280;19045;52.268;10.506;2023-02-01T12:26:35;100115.00;;;7.18;80.60
32638;BME280;19045;52.268;10.506;2023-02-01T12:29:14;100110.81;;;6.94;80.70
32638;BME280;19045;52.268;10.506;2023-02-01T12:31:53;100100.03;;;6.72;82.03
32638;BME280;19045;52.268;10.506;2023-02-01T12:37:34;100082.22;;;6.61;82.33
32638;BME280;19045;52.268;10.506;2023-02-01T12:40:21;100089.03;;;6.40;83.19
32638;BME280;19045;52.268;10.506;2023-02-01T12:42:53;100070.91;;;6.14;84.02
32638;BME280;19045;52.268;10.506;2023-02-01T12:45:28;100074.06;;;6.11;85.58
32638;BME280;19045;52.268;10.506;2023-02-01T12:48:00;100065.91;;;5.89;86.18
32638;BME280;19045;52.268;10.506;2023-02-01T12:50:34;100060.41;;;5.84;87.33
32638;BME280;19045;52.268;10.506;2023-02-01T12:53:09;100040.94;;;5.84;87.68
32638;BME280;19045;52.268;10.506;2023-02-01T12:55:42;100031.34;;;5.83;87.96
32638;BME280;19045;52.268;10.506;2023-02-01T12:58:17;100032.72;;;5.85;88.56
32638;BME280;19045;52.268;10.506;2023-02-01T13:00:50;100022.91;;;5.86;89.02
32638;BME280;19045;52.268;10.506;2023-02-01T13:03:26;100000.19;;;5.83;89.62
32638;BME280;19045;52.268;10.506;2023-02-01T13:05:59;100002.50;;;5.68;90.62
32638;BME280;19045;52.268;10.506;2023-02-01T13:08:30;99990.75;;;5.52;92.73
32638;BME280;19045;52.268;10.506;2023-02-01T13:11:06;100020.50;;;5.38;93.36
32638;BME280;19045;52.268;10.506;2023-02-01T13:13:46;99984.41;;;5.18;95.56
32638;BME280;19045;52.268;10.506;2023-02-01T13:16:17;99986.16;;;5.13;96.80